Time;durP1;ratioP1;P1;durP2;ratioP2;P2;SDS_P1;SDS_P2;PMS_P1;PMS_P2;Temp;Humidity;BMP_temperature;BMP_pressure;BME280_temperature;BME280_humidity;BME280_pressure;Samples;Min_cycle;Max_cycle;Signal;HPM_P1;HPM_P2
2023/08/01 00:01:03;;;;;;;15.08;10.60;;;;;;;19.39;100.00;99773.22;1744076;82;21024;-66
2023/08/01 00:03:32;;;;;;;13.30;10.40;;;;;;;19.40;100.00;99778.50;1743776;82;21063;-66
2023/08/01 00:06:01;;;;;;;12.50;10.43;;;;;;;19.41;100.00;99777.41;1744052;82;21312;-66
2023/08/01 00:08:30;;;;;;;11.43;10.03;;;;;;;19.42;100.00;99781.85;1744153;81;21428;-65
2023/08/01 00:11:00;;;;;;;16.57;10.30;;;;;;;19.42;100.00;99776.30;1743752;81;21495;-66
2023/08/01 00:13:28;;;;;;;12.37;10.32;;;;;;;19.43;100.00;99779.35;1743809;81;21032;-67
2023/08/01 00:15:57;;;;;;;11.38;9.73;;;;;;;19.38;100.00;99779.33;1743769;81;21024;-66
2023/08/01 00:18:28;;;;;;;13.13;10.75;;;;;;;19.33;100.00;99775.98;1743238;81;21059;-65
2023/08/01 00:20:56;;;;;;;12.85;9.78;;;;;;;19.31;100.00;99772.63;1743729;81;21480;-65
2023/08/01 00:23:25;;;;;;;12.78;9.88;;;;;;;19.31;100.00;99776.80;1743778;82;21039;-66
2023/08/01 00:25:53;;;;;;;10.65;8.60;;;;;;;19.31;100.00;99776.80;1743870;82;21020;-66
2023/08/01 00:28:23;;;;;;;12.13;9.00;;;;;;;19.30;100.00;99771.52;1743899;81;21059;-66
2023/08/01 00:30:51;;;;;;;14.93;9.15;;;;;;;19.28;100.00;99782.89;1744028;82;21501;-66
2023/08/01 00:33:20;;;;;;;11.85;8.08;;;;;;;19.28;100.00;99771.78;1733891;82;21413;-66
2023/08/01 00:35:55;;;;;;;10.00;8.25;;;;;;;19.27;100.00;99775.67;1743923;82;21032;-66
2023/08/01 00:38:24;;;;;;;10.53;8.60;;;;;;;19.28;100.00;99773.73;1743929;81;21072;-66
2023/08/01 00:40:53;;;;;;;10.15;8.45;;;;;;;19.28;100.00;99770.40;1744061;82;21012;-66
2023/08/01 00:43:22;;;;;;;12.28;10.35;;;;;;;19.28;100.00;99773.73;1744207;82;21012;-66
2023/08/01 00:45:51;;;;;;;11.88;9.60;;;;;;;19.25;100.00;99768.71;1743978;82;21506;-65
2023/08/01 00:48:20;;;;;;;10.15;8.80;;;;;;;19.23;100.00;99771.77;1744103;81;21066;-66
2023/08/01 00:50:49;;;;;;;12.60;8.70;;;;;;;19.21;100.00;99773.14;1744016;82;21020;-65
2023/08/01 00:53:18;;;;;;;12.53;8.90;;;;;;;19.21;100.00;99772.58;1744026;82;21051;-66
2023/08/01 00:55:48;;;;;;;12.63;8.33;;;;;;;19.22;100.00;99770.09;1743840;82;21068;-66
2023/08/01 00:58:16;;;;;;;12.20;8.85;;;;;;;19.23;100.00;99773.15;1744097;82;21163;-66
2023/08/01 01:00:47;;;;;;;10.25;8.65;;;;;;;19.20;100.00;99760.36;1743994;82;21456;-66
2023/08/01 01:03:19;;;;;;;12.05;8.73;;;;;;;19.14;100.00;99758.11;1743927;82;21013;-66
2023/08/01 01:06:08;;;;;;;11.33;8.63;;;;;;;19.12;100.00;99754.77;1744195;81;20996;-66
2023/08/01 01:08:37;;;;;;;10.78;9.20;;;;;;;19.10;100.00;99758.36;1743907;82;21439;-65
2023/08/01 01:11:06;;;;;;;12.40;9.00;;;;;;;19.05;100.00;99755.55;1752685;82;21031;-68
2023/08/01 01:13:34;;;;;;;12.68;9.10;;;;;;;19.02;100.00;99764.98;1757201;80;21466;-65
2023/08/01 01:16:04;;;;;;;12.58;9.35;;;;;;;18.98;100.00;99756.34;1757400;81;21015;-65
2023/08/01 01:18:33;;;;;;;11.03;8.60;;;;;;;18.98;100.00;99757.73;1757155;82;21039;-66
2023/08/01 01:21:03;;;;;;;11.53;8.40;;;;;;;18.99;100.00;99758.86;1757138;82;21035;-66
2023/08/01 01:23:31;;;;;;;12.93;8.98;;;;;;;19.00;100.00;99754.14;1757456;82;21059;-65
2023/08/01 01:26:00;;;;;;;11.35;9.45;;;;;;;19.00;100.00;99742.48;1757208;82;21074;-66
2023/08/01 01:28:29;;;;;;;13.83;8.70;;;;;;;18.98;100.00;99748.02;1757388;82;21012;-64
2023/08/01 01:30:59;;;;;;;12.50;9.20;;;;;;;18.96;100.00;99742.73;1757426;80;21059;-66
2023/08/01 01:33:27;;;;;;;12.65;9.35;;;;;;;18.93;100.00;99749.37;1757313;82;21466;-64
2023/08/01 01:35:56;;;;;;;13.08;8.73;;;;;;;18.91;100.00;99752.97;1757521;82;21043;-65
2023/08/01 01:38:25;;;;;;;12.30;8.83;;;;;;;18.88;100.00;99746.57;1757196;82;21463;-66
2023/08/01 01:40:54;;;;;;;13.18;8.98;;;;;;;18.84;100.00;99742.08;1757171;82;21455;-66
2023/08/01 01:43:23;;;;;;;10.35;8.05;;;;;;;18.85;100.00;99745.14;1757176;82;21043;-64
2023/08/01 01:45:51;;;;;;;14.43;8.30;;;;;;;18.85;100.00;99756.23;1757233;82;21059;-66
2023/08/01 01:48:22;;;;;;;9.83;7.85;;;;;;;18.85;100.00;99753.46;1757343;82;21043;-66
2023/08/01 01:50:51;;;;;;;10.38;7.75;;;;;;;18.84;100.00;99756.50;1757377;80;21467;-68
2023/08/01 01:53:19;;;;;;;13.40;8.28;;;;;;;18.83;100.00;99755.67;1757218;82;21539;-66
2023/08/01 01:55:49;;;;;;;14.30;8.10;;;;;;;18.81;100.00;99753.72;1757388;80;21039;-67
2023/08/01 01:58:18;;;;;;;13.83;7.67;;;;;;;18.76;100.00;99746.74;1757322;82;21698;-64
2023/08/01 02:00:48;;;;;;;9.93;7.50;;;;;;;18.71;100.00;99754.20;1757384;82;21012;-66
2023/08/01 02:03:17;;;;;;;13.13;7.67;;;;;;;18.66;100.00;99750.28;1757331;82;21035;-65
2023/08/01 02:05:46;;;;;;;11.65;8.15;;;;;;;18.64;100.00;99753.05;1757139;82;21749;-65
2023/08/01 02:08:15;;;;;;;9.10;7.40;;;;;;;18.63;100.00;99751.38;1757459;82;21047;-66
2023/08/01 02:10:43;;;;;;;9.20;6.83;;;;;;;18.61;100.00;99752.16;1757296;82;21066;-65
2023/08/01 02:13:11;;;;;;;14.38;7.37;;;;;;;18.61;100.00;99750.77;1757307;82;21087;-66
2023/08/01 02:15:40;;;;;;;7.95;6.92;;;;;;;18.60;100.00;99753.26;1757447;82;21031;-65
2023/08/01 02:18:09;;;;;;;10.45;6.45;;;;;;;18.61;100.00;99746.09;1757176;82;20987;-64
2023/08/01 02:20:38;;;;;;;8.28;7.37;;;;;;;18.61;100.00;99752.16;1757360;82;21031;-65
2023/08/01 02:23:07;;;;;;;10.90;7.35;;;;;;;18.56;100.00;99756.28;1757118;82;21471;-66
2023/08/01 02:25:40;;;;;;;9.45;7.35;;;;;;;18.51;100.00;99757.08;1757363;82;21025;-65
2023/08/01 02:28:09;;;;;;;9.63;7.83;;;;;;;18.50;100.00;99753.18;1757386;80;21051;-66
2023/08/01 02:30:38;;;;;;;11.85;7.60;;;;;;;18.49;100.00;99749.57;1757359;82;21031;-66
2023/08/01 02:33:07;;;;;;;8.40;7.28;;;;;;;18.48;100.00;99753.45;1740262;82;21059;-64
2023/08/01 02:35:37;;;;;;;10.88;7.10;;;;;;;18.43;100.00;99759.50;1757302;82;21023;-65
2023/08/01 02:38:06;;;;;;;8.73;7.25;;;;;;;18.36;100.00;99766.11;1757374;82;21050;-64
2023/08/01 02:40:34;;;;;;;11.65;7.15;;;;;;;18.34;100.00;99770.25;1757274;82;21020;-65
2023/08/01 02:43:03;;;;;;;12.23;7.87;;;;;;;18.37;100.00;99765.56;1757333;82;21031;-64
2023/08/01 02:45:32;;;;;;;9.63;7.20;;;;;;;18.42;100.00;99770.31;1757378;80;21050;-66
2023/08/01 02:48:01;;;;;;;9.45;7.20;;;;;;;18.42;100.00;99761.99;1757493;82;21089;-67
2023/08/01 02:50:30;;;;;;;8.95;6.85;;;;;;;18.40;100.00;99767.80;1757178;82;21066;-65
2023/08/01 02:52:59;;;;;;;9.05;6.62;;;;;;;18.39;100.00;99761.97;1757149;82;21444;-65
2023/08/01 02:55:27;;;;;;;14.75;7.72;;;;;;;18.41;100.00;99761.70;1757239;81;21473;-65
2023/08/01 02:57:56;;;;;;;9.45;6.35;;;;;;;18.39;100.00;99768.91;1757350;82;21048;-65
2023/08/01 03:00:25;;;;;;;12.03;6.70;;;;;;;18.39;100.00;99766.13;1757306;82;21071;-66
2023/08/01 03:02:54;;;;;;;8.60;6.55;;;;;;;18.35;100.00;99767.77;1757263;82;21062;-66
2023/08/01 03:05:23;;;;;;;8.08;7.00;;;;;;;18.32;100.00;99764.97;1757140;80;21423;-65
2023/08/01 03:07:51;;;;;;;7.87;6.65;;;;;;;18.33;100.00;99761.64;1757475;82;21404;-65
2023/08/01 03:10:19;;;;;;;9.90;7.10;;;;;;;18.32;100.00;99761.36;1757080;82;21529;-64
2023/08/01 03:12:50;;;;;;;9.20;7.45;;;;;;;18.34;100.00;99765.54;1755307;81;21467;-69
2023/08/01 03:15:19;;;;;;;11.57;7.55;;;;;;;18.36;100.00;99761.11;1757093;82;21019;-65
2023/08/01 03:17:47;;;;;;;8.35;6.75;;;;;;;18.42;100.00;99760.61;1757329;82;21035;-66
2023/08/01 03:20:16;;;;;;;8.80;7.20;;;;;;;18.47;100.00;99762.88;1757203;82;21087;-65
2023/08/01 03:22:46;;;;;;;9.88;6.97;;;;;;;18.51;100.00;99770.11;1757198;82;21755;-65
2023/08/01 03:25:16;;;;;;;9.63;7.80;;;;;;;18.54;100.00;99770.97;1757161;82;20984;-64
2023/08/01 03:27:44;;;;;;;11.35;7.58;;;;;;;18.57;100.00;99767.66;1757125;82;21454;-65
2023/08/01 03:30:14;;;;;;;11.08;7.85;;;;;;;18.59;100.00;99773.78;1757378;82;21044;-64
2023/08/01 03:32:43;;;;;;;9.75;7.45;;;;;;;18.61;100.00;99766.90;1757346;82;21028;-65
2023/08/01 03:35:13;;;;;;;8.58;7.35;;;;;;;18.64;100.00;99777.47;1757187;80;21041;-66
2023/08/01 03:37:43;;;;;;;10.68;7.80;;;;;;;18.66;100.00;99769.70;1757355;82;21054;-66
2023/08/01 03:40:12;;;;;;;8.95;7.20;;;;;;;18.66;100.00;99765.55;1757236;80;21044;-65
2023/08/01 03:42:41;;;;;;;8.65;7.85;;;;;;;18.65;100.00;99770.81;1757277;82;21034;-66
2023/08/01 03:45:11;;;;;;;9.43;7.65;;;;;;;18.66;100.00;99766.94;1740671;82;21083;-66
2023/08/01 03:47:40;;;;;;;9.65;7.00;;;;;;;18.65;100.00;99768.03;1757381;82;21003;-65
2023/08/01 03:50:10;;;;;;;12.95;8.18;;;;;;;18.65;100.00;99760.27;1757338;82;21046;-65
2023/08/01 03:52:38;;;;;;;13.03;8.05;;;;;;;18.63;100.00;99765.24;1757233;80;21062;-65
2023/08/01 03:55:10;;;;;;;14.20;8.18;;;;;;;18.64;100.00;99778.02;1757479;82;21403;-66
2023/08/01 03:57:40;;;;;;;12.20;8.38;;;;;;;18.61;100.00;99772.45;1757360;82;21334;-66
2023/08/01 04:00:18;;;;;;;11.85;9.15;;;;;;;18.63;100.00;99774.41;1757373;82;21028;-65
2023/08/01 04:02:48;;;;;;;12.82;9.60;;;;;;;18.66;100.00;99780.81;1757130;80;21043;-66
2023/08/01 04:05:19;;;;;;;16.85;12.78;;;;;;;18.68;100.00;99771.67;1757243;82;21070;-66
2023/08/01 04:07:48;;;;;;;21.68;17.87;;;;;;;18.72;100.00;99776.69;1757138;82;21011;-65
2023/08/01 04:10:17;;;;;;;24.90;19.10;;;;;;;18.76;100.00;99769.50;1757283;80;21032;-67
2023/08/01 04:12:45;;;;;;;22.17;18.25;;;;;;;18.80;100.00;99764.53;1757036;82;21117;-66
2023/08/01 04:15:14;;;;;;;20.77;16.65;;;;;;;18.84;100.00;99769.00;1757327;82;21298;-65
2023/08/01 04:17:43;;;;;;;23.70;17.17;;;;;;;18.88;100.00;99779.33;1757128;82;21485;-66
2023/08/01 04:20:12;;;;;;;23.07;17.60;;;;;;;18.91;100.00;99777.96;1757102;82;21071;-67
2023/08/01 04:22:42;;;;;;;20.90;15.23;;;;;;;18.94;100.00;99776.88;1757319;82;21050;-66
2023/08/01 04:25:11;;;;;;;20.25;15.00;;;;;;;18.97;100.00;99777.72;1757214;82;21039;-65
2023/08/01 04:27:39;;;;;;;20.85;14.43;;;;;;;19.00;100.00;99779.13;1757151;82;21050;-65
2023/08/01 04:30:09;;;;;;;17.55;14.83;;;;;;;19.04;100.00;99780.27;1757347;82;21091;-66
2023/08/01 04:32:37;;;;;;;19.40;14.95;;;;;;;19.08;100.00;99781.95;1757300;82;21047;-67
2023/08/01 04:35:07;;;;;;;21.12;14.80;;;;;;;19.11;100.00;99785.58;1757323;82;21055;-66
2023/08/01 04:37:36;;;;;;;15.72;14.03;;;;;;;19.13;100.00;99785.59;1757065;82;21451;-67
2023/08/01 04:40:09;;;;;;;15.20;12.28;;;;;;;19.17;100.00;99790.05;1757171;82;21058;-66
2023/08/01 04:42:38;;;;;;;17.02;13.25;;;;;;;19.20;100.00;99786.73;1757244;80;21023;-66
2023/08/01 04:45:07;;;;;;;15.40;12.35;;;;;;;19.25;100.00;99772.87;1757161;82;21054;-66
2023/08/01 04:47:36;;;;;;;15.63;12.03;;;;;;;19.30;100.00;99772.34;1757304;80;21065;-66
2023/08/01 04:50:07;;;;;;;16.48;11.97;;;;;;;19.37;100.00;99783.22;1757152;82;21455;-67
2023/08/01 04:52:35;;;;;;;30.65;16.65;;;;;;;19.40;100.00;99774.89;1757161;82;21055;-66
2023/08/01 04:55:06;;;;;;;18.50;12.15;;;;;;;19.46;100.00;99779.36;1756995;80;21309;-66
2023/08/01 04:57:34;;;;;;;12.10;10.38;;;;;;;19.51;100.00;99778.86;1757137;82;21492;-66
2023/08/01 05:00:04;;;;;;;11.83;10.18;;;;;;;19.54;100.00;99778.91;1757332;82;21051;-67
2023/08/01 05:02:34;;;;;;;12.68;9.23;;;;;;;19.60;100.00;99786.99;1757053;82;21459;-66
2023/08/01 05:05:03;;;;;;;9.90;8.68;;;;;;;19.68;100.00;99781.46;1757176;82;21031;-66
2023/08/01 05:07:33;;;;;;;20.88;9.45;;;;;;;19.75;100.00;99790.94;1757202;82;21019;-65
2023/08/01 05:10:02;;;;;;;13.40;8.98;;;;;;;19.80;100.00;99783.45;1757142;82;21086;-67
2023/08/01 05:12:31;;;;;;;11.70;8.28;;;;;;;19.88;100.00;99786.25;1753625;81;21051;-67
2023/08/01 05:15:00;;;;;;;10.93;9.05;;;;;;;19.98;100.00;99785.44;1751744;82;21055;-66
2023/08/01 05:17:29;;;;;;;10.38;8.53;;;;;;;20.09;100.00;99792.69;1751923;81;21055;-67
2023/08/01 05:19:57;;;;;;;8.85;6.85;;;;;;;20.19;100.00;99790.80;1751884;82;21059;-67
2023/08/01 05:22:27;;;;;;;6.20;5.42;;;;;;;20.33;100.00;99793.03;1751758;82;21040;-64
2023/08/01 05:24:55;;;;;;;10.93;5.97;;;;;;;20.52;100.00;99788.63;1751919;81;21015;-67
2023/08/01 05:27:23;;;;;;;12.85;6.90;;;;;;;20.77;100.00;99795.57;1751980;82;21043;-67
2023/08/01 05:29:53;;;;;;;13.20;6.33;;;;;;;21.06;98.11;99793.61;1751961;82;21031;-66
2023/08/01 05:32:23;;;;;;;9.68;5.80;;;;;;;21.35;96.38;99791.06;1751822;82;21028;-67
2023/08/01 05:34:53;;;;;;;7.70;5.35;;;;;;;21.64;94.58;99789.86;1751763;82;21655;-68
2023/08/01 05:37:22;;;;;;;8.20;6.08;;;;;;;21.98;91.93;99788.57;1752244;82;21087;-67
2023/08/01 05:39:51;;;;;;;7.90;6.72;;;;;;;22.23;89.21;99789.03;1752019;81;21451;-68
2023/08/01 05:42:21;;;;;;;7.50;6.45;;;;;;;22.39;86.92;99794.78;1752221;82;21015;-68
2023/08/01 05:44:50;;;;;;;11.18;7.03;;;;;;;22.48;85.70;99787.45;1751790;80;21020;-67
2023/08/01 05:47:18;;;;;;;11.43;8.88;;;;;;;22.50;84.35;99780.18;1751899;81;21020;-68
2023/08/01 05:49:48;;;;;;;10.43;7.75;;;;;;;22.51;84.06;99780.45;1751848;82;21186;-68
2023/08/01 05:52:18;;;;;;;10.20;7.03;;;;;;;22.56;83.96;99781.23;1751942;82;21027;-68
2023/08/01 05:54:47;;;;;;;9.78;6.72;;;;;;;22.64;83.22;99783.41;1751781;82;21063;-67
2023/08/01 05:57:16;;;;;;;9.18;6.45;;;;;;;22.69;82.51;99790.91;1751764;82;21058;-68
2023/08/01 05:59:45;;;;;;;9.10;6.65;;;;;;;22.78;82.24;99787.78;1751754;81;21043;-71
2023/08/01 06:02:13;;;;;;;10.72;6.50;;;;;;;22.88;82.04;99794.70;1752004;81;21027;-67
2023/08/01 06:04:43;;;;;;;8.13;5.35;;;;;;;23.03;81.35;99788.13;1751838;81;21008;-69
2023/08/01 06:07:12;;;;;;;5.95;3.90;;;;;;;23.16;80.27;99788.00;1751756;82;21027;-67
2023/08/01 06:09:42;;;;;;;5.70;4.40;;;;;;;23.27;78.48;99783.96;1752163;81;21099;-67
2023/08/01 06:12:11;;;;;;;6.03;4.30;;;;;;;23.34;76.88;99792.27;1754161;82;21047;-68
2023/08/01 06:14:40;;;;;;;6.42;3.80;;;;;;;23.39;75.99;99785.77;1757398;82;21011;-66
2023/08/01 06:17:09;;;;;;;6.67;5.20;;;;;;;23.49;75.10;99787.65;1757279;82;20991;-68
2023/08/01 06:19:40;;;;;;;4.47;3.33;;;;;;;23.58;74.15;99789.52;1757108;82;21079;-68
2023/08/01 06:22:09;;;;;;;4.20;3.25;;;;;;;23.68;72.88;99789.39;1757291;82;21471;-67
2023/08/01 06:24:39;;;;;;;6.05;3.37;;;;;;;23.80;72.24;99785.33;1757280;82;21015;-66
2023/08/01 06:27:09;;;;;;;3.62;2.65;;;;;;;23.98;71.94;99787.31;1757136;82;21031;-67
2023/08/01 06:29:39;;;;;;;5.20;3.50;;;;;;;24.21;71.00;99779.45;1757303;82;21071;-67
2023/08/01 06:32:08;;;;;;;4.60;3.60;;;;;;;24.44;69.59;99780.52;1757464;82;21062;-67
2023/08/01 06:34:38;;;;;;;4.35;3.20;;;;;;;24.66;68.48;99789.11;1757323;82;21055;-67
2023/08/01 06:37:06;;;;;;;5.17;3.95;;;;;;;24.91;67.66;99781.42;1757059;82;21007;-67
2023/08/01 06:39:35;;;;;;;3.37;3.05;;;;;;;25.12;66.79;99784.14;1757323;82;21067;-68
2023/08/01 06:42:05;;;;;;;5.35;3.08;;;;;;;25.35;65.62;99788.48;1740459;82;21533;-67
2023/08/01 06:44:35;;;;;;;3.72;3.00;;;;;;;25.55;64.46;99784.72;1740836;82;21020;-67
2023/08/01 06:47:04;;;;;;;4.00;2.80;;;;;;;25.85;63.64;99782.44;1757260;82;21471;-66
2023/08/01 06:49:34;;;;;;;4.80;3.15;;;;;;;26.09;62.27;99779.41;1757353;82;20999;-69
2023/08/01 06:52:04;;;;;;;4.12;2.50;;;;;;;26.35;61.88;99774.88;1757152;82;21444;-66
2023/08/01 06:54:32;;;;;;;3.05;2.70;;;;;;;26.82;60.37;99783.28;1757129;82;21055;-66
2023/08/01 06:57:01;;;;;;;2.70;2.50;;;;;;;26.82;60.37;99783.28;1757314;82;21019;-67
2023/08/01 06:59:31;;;;;;;2.83;2.52;;;;;;;27.15;58.73;99773.16;1757296;82;21035;-64
2023/08/01 07:02:00;;;;;;;4.35;2.90;;;;;;;27.15;58.73;99773.16;1757396;82;21113;-66
2023/08/01 07:04:29;;;;;;;5.05;3.70;;;;;;;27.57;56.76;99776.51;1757131;82;20983;-67
2023/08/01 07:06:58;;;;;;;4.00;2.77;;;;;;;27.57;56.76;99776.51;1757226;82;21043;-66
2023/08/01 07:09:27;;;;;;;3.87;2.77;;;;;;;27.77;55.80;99777.34;1757252;82;21058;-67
2023/08/01 07:11:57;;;;;;;3.30;2.90;;;;;;;27.86;54.78;99773.14;1754873;82;21095;-67
2023/08/01 07:14:26;;;;;;;8.00;5.03;;;;;;;27.93;53.81;99767.28;1743793;82;21516;-66
2023/08/01 07:16:55;;;;;;;4.25;2.80;;;;;;;27.84;54.16;99773.47;1743938;82;21137;-67
2023/08/01 07:19:25;;;;;;;4.12;3.02;;;;;;;27.86;55.08;99776.79;1743845;82;21048;-66
2023/08/01 07:21:53;;;;;;;5.65;2.90;;;;;;;27.98;54.14;99770.55;1743815;81;20992;-66
2023/08/01 07:24:24;;;;;;;4.85;2.80;;;;;;;28.13;54.12;99764.43;1744214;82;21051;-67
2023/08/01 07:26:55;;;;;;;6.08;3.37;;;;;;;28.26;52.86;99762.65;1743886;81;21092;-65
2023/08/01 07:29:23;;;;;;;3.65;2.80;;;;;;;28.40;52.69;99761.91;1743795;82;21027;-67
2023/08/01 07:31:52;;;;;;;7.17;2.90;;;;;;;28.55;51.66;99773.25;1743999;81;21051;-66
2023/08/01 07:34:21;;;;;;;4.17;3.10;;;;;;;28.62;51.46;99772.20;1743998;82;21056;-66
2023/08/01 07:36:52;;;;;;;4.78;2.92;;;;;;;28.60;50.98;99764.04;1743755;82;21525;-66
2023/08/01 07:39:21;;;;;;;6.08;2.65;;;;;;;28.53;50.99;99769.36;1743946;82;21627;-66
2023/08/01 07:41:50;;;;;;;3.25;2.70;;;;;;;28.53;51.40;99775.58;1743972;82;21055;-67
2023/08/01 07:44:18;;;;;;;4.97;2.77;;;;;;;28.47;50.89;99770.69;1743998;82;21505;-66
2023/08/01 07:46:47;;;;;;;4.25;2.70;;;;;;;28.49;51.26;99765.55;1744113;82;21047;-67
2023/08/01 07:49:16;;;;;;;5.35;2.72;;;;;;;28.54;51.57;99772.42;1743907;82;21012;-67
2023/08/01 07:51:45;;;;;;;6.62;3.83;;;;;;;28.50;50.60;99768.61;1743798;81;21057;-67
2023/08/01 07:54:14;;;;;;;3.70;2.72;;;;;;;28.32;51.05;99779.64;1755521;81;21018;-68
2023/08/01 07:56:48;;;;;;;4.65;2.90;;;;;;;28.21;51.22;99776.87;1772439;81;21032;-66
2023/08/01 07:59:16;;;;;;;4.45;2.90;;;;;;;28.07;51.21;99776.44;1758054;81;21077;-68
2023/08/01 08:01:45;;;;;;;5.10;3.22;;;;;;;27.94;51.39;99773.16;1756511;81;21012;-67
2023/08/01 08:04:14;;;;;;;4.75;2.87;;;;;;;27.91;51.90;99780.02;1774398;81;21012;-64
2023/08/01 08:06:42;;;;;;;3.52;2.80;;;;;;;27.93;51.39;99774.31;1774274;81;21048;-66
2023/08/01 08:09:11;;;;;;;4.62;3.37;;;;;;;27.99;52.20;99775.84;1774498;80;21067;-66
2023/08/01 08:11:40;;;;;;;4.37;2.98;;;;;;;28.25;51.78;99769.44;1743450;81;21102;-68
2023/08/01 08:14:11;;;;;;;12.47;4.42;;;;;;;28.36;51.09;99773.02;1755908;81;21048;-67
2023/08/01 08:16:40;;;;;;;3.77;2.80;;;;;;;28.45;51.02;99773.59;1756816;82;21521;-71
2023/08/01 08:19:10;;;;;;;3.60;3.12;;;;;;;28.65;50.59;99770.13;1756959;82;21070;-66
2023/08/01 08:21:39;;;;;;;3.50;2.90;;;;;;;28.81;49.87;99771.84;1756821;82;21490;-65
2023/08/01 08:24:07;;;;;;;3.90;2.90;;;;;;;28.78;49.17;99771.09;1756929;82;21035;-66
2023/08/01 08:26:39;;;;;;;7.55;4.28;;;;;;;28.63;49.24;99768.22;1760560;80;20999;-65
2023/08/01 08:29:08;;;;;;;4.05;3.30;;;;;;;28.64;49.20;99767.88;1787941;80;21027;-65
2023/08/01 08:31:38;;;;;;;4.80;3.30;;;;;;;28.65;49.00;99761.66;1788190;80;21015;-66
2023/08/01 08:34:08;;;;;;;7.58;4.22;;;;;;;28.52;48.41;99769.69;1787923;79;21247;-68
2023/08/01 08:36:37;;;;;;;4.05;2.83;;;;;;;28.31;49.17;99770.94;1787859;80;21035;-67
2023/08/01 08:39:07;;;;;;;4.58;3.30;;;;;;;28.15;49.75;99771.14;1787956;79;21003;-70
2023/08/01 08:41:39;;;;;;;4.95;3.37;;;;;;;28.12;50.38;99776.03;1787817;80;21459;-69
2023/08/01 08:44:09;;;;;;;5.25;3.25;;;;;;;28.13;50.76;99767.83;1787768;80;21081;-70
2023/08/01 08:46:43;;;;;;;7.60;3.60;;;;;;;28.03;50.77;99763.34;1788039;80;21091;-69
2023/08/01 08:49:15;;;;;;;5.28;3.80;;;;;;;27.92;50.58;99759.16;1788001;80;21047;-70
2023/08/01 08:51:43;;;;;;;4.03;3.00;;;;;;;27.80;50.87;99755.58;1788016;80;21046;-68
2023/08/01 08:54:12;;;;;;;4.37;2.75;;;;;;;27.78;51.53;99751.68;1787921;80;21058;-69
2023/08/01 08:56:41;;;;;;;7.60;3.08;;;;;;;27.93;51.28;99744.75;1787867;80;21019;-70
2023/08/01 08:59:11;;;;;;;6.00;2.80;;;;;;;28.17;51.51;99747.13;1788119;80;21109;-69
2023/08/01 09:01:40;;;;;;;4.78;2.58;;;;;;;28.49;50.00;99739.34;1788085;79;21497;-69
2023/08/01 09:04:09;;;;;;;3.27;2.70;;;;;;;28.58;48.73;99745.22;1788055;80;21059;-68
2023/08/01 09:06:43;;;;;;;5.33;3.08;;;;;;;28.47;49.22;99745.90;1788197;80;21483;-70
2023/08/01 09:09:14;;;;;;;5.10;3.27;;;;;;;28.38;49.65;99737.45;1787407;79;21013;-70
2023/08/01 09:11:47;;;;;;;5.12;3.17;;;;;;;28.33;49.01;99736.21;1788188;79;21050;-66
2023/08/01 09:14:17;;;;;;;3.65;3.00;;;;;;;28.36;49.00;99732.73;1764341;80;21130;-66
2023/08/01 09:16:47;;;;;;;4.78;3.40;;;;;;;28.44;48.44;99730.48;1763252;80;21087;-67
2023/08/01 09:19:21;;;;;;;2.67;2.45;;;;;;;28.50;48.41;99728.32;1782541;80;21475;-66
2023/08/01 09:21:50;;;;;;;4.37;2.80;;;;;;;28.56;46.84;99719.94;1782599;80;21035;-67
2023/08/01 09:24:20;;;;;;;6.83;3.58;;;;;;;28.50;47.13;99720.70;1782375;79;21510;-66
2023/08/01 09:26:50;;;;;;;3.85;3.30;;;;;;;28.46;47.52;99723.93;1782936;79;20988;-67
2023/08/01 09:29:20;;;;;;;4.08;2.80;;;;;;;28.50;47.96;99716.47;1782596;79;21060;-67
2023/08/01 09:31:49;;;;;;;7.65;3.22;;;;;;;28.60;47.72;99707.66;1782806;80;21031;-69
2023/08/01 09:34:24;;;;;;;6.85;3.50;;;;;;;28.71;46.93;99713.22;1782549;80;21002;-67
2023/08/01 09:37:00;;;;;;;4.83;2.87;;;;;;;28.77;46.72;99706.00;1782497;79;21470;-65
2023/08/01 09:39:31;;;;;;;;;;;;;;;28.81;45.87;99711.20;1785335;80;21015;-67
2023/08/01 09:42:01;;;;;;;3.65;2.95;;;;;;;28.74;44.79;99713.14;1782553;80;20157;-75
2023/08/01 09:44:30;;;;;;;2.98;2.55;;;;;;;28.54;45.35;99715.22;1782499;80;21011;-68
2023/08/01 09:47:08;;;;;;;5.97;3.25;;;;;;;28.46;46.04;99714.07;1782628;80;21030;-66
2023/08/01 09:49:54;;;;;;;3.00;2.40;;;;;;;28.35;45.76;99718.39;1782664;80;21067;-65
2023/08/01 09:52:30;;;;;;;3.70;3.00;;;;;;;28.22;45.81;99708.92;1782453;80;21071;-66
2023/08/01 09:54:59;;;;;;;4.23;2.57;;;;;;;28.10;46.16;99706.77;1782903;80;21068;-67
2023/08/01 09:57:30;;;;;;;3.58;2.87;;;;;;;28.12;47.21;99701.38;1782670;80;21107;-67
2023/08/01 09:59:59;;;;;;;3.75;2.77;;;;;;;28.26;47.07;99697.84;1782320;80;21027;-67
2023/08/01 10:02:31;;;;;;;3.87;3.20;;;;;;;28.26;47.07;99697.84;1756656;80;21414;-65
2023/08/01 10:05:00;;;;;;;6.17;2.90;;;;;;;28.24;46.49;99695.94;1746837;81;21022;-64
2023/08/01 10:07:30;;;;;;;2.37;2.17;;;;;;;28.17;46.81;99701.22;1751467;80;21049;-65
2023/08/01 10:10:00;;;;;;;3.20;2.65;;;;;;;28.14;46.73;99693.43;1751328;80;21097;-67
2023/08/01 10:12:30;;;;;;;3.72;2.52;;;;;;;28.04;46.59;99685.56;1751673;82;21481;-66
2023/08/01 10:14:59;;;;;;;4.05;2.55;;;;;;;28.04;46.67;99686.97;1712283;82;21034;-66
2023/08/01 10:17:28;;;;;;;3.02;2.25;;;;;;;28.10;46.84;99689.88;1740884;81;21085;-66
2023/08/01 10:19:58;;;;;;;4.50;3.42;;;;;;;28.17;45.86;99682.91;1740542;82;21446;-69
2023/08/01 10:22:27;;;;;;;3.52;2.80;;;;;;;28.21;44.42;99691.77;1712432;81;21101;-65
2023/08/01 10:24:57;;;;;;;4.85;2.90;;;;;;;28.12;44.62;99683.91;1740894;82;21011;-66
2023/08/01 10:27:26;;;;;;;8.15;4.00;;;;;;;28.10;44.40;99674.38;1740829;82;21113;-65
2023/08/01 10:30:01;;;;;;;2.77;2.37;;;;;;;28.18;43.61;99681.75;1740648;82;21466;-67
2023/08/01 10:32:37;;;;;;;2.35;2.15;;;;;;;28.24;42.54;99674.81;1740585;82;21046;-67
2023/08/01 10:35:07;;;;;;;4.05;2.90;;;;;;;28.28;41.74;99677.21;1740866;82;21106;-66
2023/08/01 10:37:47;;;;;;;3.15;2.40;;;;;;;28.20;42.12;99676.61;1741082;82;21019;-68
2023/08/01 10:40:16;;;;;;;5.50;3.70;;;;;;;28.10;42.62;99674.38;1740853;82;21082;-66
2023/08/01 10:42:46;;;;;;;3.75;2.70;;;;;;;28.02;41.39;99669.58;1740893;82;21026;-67
2023/08/01 10:45:23;;;;;;;4.35;2.60;;;;;;;27.90;41.82;99668.55;1740610;81;21086;-66
2023/08/01 10:47:53;;;;;;;3.37;2.50;;;;;;;27.87;42.94;99668.63;1740799;81;21027;-67
2023/08/01 10:50:21;;;;;;;3.37;2.33;;;;;;;27.89;44.19;99666.31;1740924;82;21034;-65
2023/08/01 10:52:51;;;;;;;3.20;2.47;;;;;;;27.94;44.49;99670.95;1740789;82;21492;-66
2023/08/01 10:55:20;;;;;;;2.50;2.30;;;;;;;27.98;44.80;99666.34;1687976;82;21426;-66
2023/08/01 10:57:49;;;;;;;2.47;2.27;;;;;;;28.01;43.62;99663.69;1740722;82;21010;-65
2023/08/01 11:00:20;;;;;;;4.15;2.33;;;;;;;27.89;44.07;99654.22;1740980;81;21007;-67
2023/08/01 11:02:52;;;;;;;3.65;2.20;;;;;;;27.89;44.07;99654.22;1749118;81;20991;-65
2023/08/01 11:05:23;;;;;;;3.55;2.85;;;;;;;27.85;43.50;99654.63;1749118;82;21065;-65
2023/08/01 11:08:00;;;;;;;3.90;2.50;;;;;;;27.84;43.61;99645.36;1748879;82;21034;-66
2023/08/01 11:10:31;;;;;;;2.90;2.30;;;;;;;27.86;43.79;99647.27;1749233;82;21062;-65
2023/08/01 11:13:00;;;;;;;3.90;2.75;;;;;;;27.85;43.79;99654.05;1749317;81;21097;-65
2023/08/01 11:15:29;;;;;;;2.95;2.47;;;;;;;27.91;43.79;99652.73;1749208;82;21501;-66
2023/08/01 11:17:57;;;;;;;5.03;2.47;;;;;;;27.98;43.16;99647.45;1749200;81;21020;-65
2023/08/01 11:20:28;;;;;;;2.60;2.40;;;;;;;28.00;43.15;99643.73;1749440;82;21455;-67
2023/08/01 11:23:04;;;;;;;5.03;2.30;;;;;;;28.03;42.90;99642.23;1749541;82;21031;-65
2023/08/01 11:25:43;;;;;;;2.95;2.30;;;;;;;28.01;43.41;99641.16;1749292;81;21087;-65
2023/08/01 11:28:14;;;;;;;4.62;3.12;;;;;;;28.00;43.17;99637.27;1749340;82;21044;-66
2023/08/01 11:30:43;;;;;;;6.45;2.77;;;;;;;27.95;43.67;99636.83;1749328;81;21071;-66
2023/08/01 11:33:22;;;;;;;4.62;3.05;;;;;;;27.98;43.80;99632.55;1749171;82;21051;-66
2023/08/01 11:35:59;;;;;;;7.50;3.15;;;;;;;28.01;43.90;99624.27;1749216;81;21214;-65
2023/08/01 11:38:30;;;;;;;3.47;2.58;;;;;;;28.09;44.10;99625.41;1749439;81;21035;-66